Time;durP1;ratioP1;P1;durP2;ratioP2;P2;SDS_P1;SDS_P2;PMS_P1;PMS_P2;Temp;Humidity;BMP_temperature;BMP_pressure;BME280_temperature;BME280_humidity;BME280_pressure;Samples;Min_cycle;Max_cycle;Signal;HPM_P1;HPM_P2
2023/09/30 00:00:09;;;;;;;6.10;3.07;;;17.40;99.90;;;;;;6123498;23;21084;-69
2023/09/30 00:02:35;;;;;;;5.17;3.40;;;17.40;99.90;;;;;;6092818;23;20451;-69
2023/09/30 00:05:03;;;;;;;6.50;3.30;;;17.40;99.90;;;;;;6132738;23;20446;-69
2023/09/30 00:07:31;;;;;;;4.63;3.03;;;17.50;99.90;;;;;;6134616;23;20446;-68
2023/09/30 00:09:59;;;;;;;28.63;4.90;;;17.40;99.90;;;;;;6134305;23;21053;-70
2023/09/30 00:12:26;;;;;;;5.40;3.40;;;17.30;99.90;;;;;;6094460;23;20505;-71
2023/09/30 00:14:54;;;;;;;14.20;3.80;;;17.30;99.90;;;;;;6133259;23;20442;-69
2023/09/30 00:17:21;;;;;;;7.10;3.50;;;;;;;;;;6133786;23;20454;-71
2023/09/30 00:19:48;;;;;;;5.83;3.30;;;17.50;99.90;;;;;;6133887;23;20446;-68
2023/09/30 00:22:15;;;;;;;7.77;3.73;;;17.60;99.90;;;;;;6134161;23;20838;-69
2023/09/30 00:24:43;;;;;;;7.23;3.10;;;17.50;99.90;;;;;;6134300;23;20529;-71
2023/09/30 00:27:10;;;;;;;4.80;2.83;;;17.50;99.90;;;;;;6130829;23;20454;-70
2023/09/30 00:29:37;;;;;;;4.37;3.40;;;17.50;99.90;;;;;;6129964;23;20541;-68
2023/09/30 00:32:04;;;;;;;5.77;3.10;;;17.60;99.90;;;;;;6123993;23;20442;-69
2023/09/30 00:34:34;;;;;;;7.40;4.20;;;17.60;99.90;;;;;;6129185;23;20466;-70
2023/09/30 00:37:01;;;;;;;12.57;3.50;;;17.60;99.90;;;;;;6091650;23;20446;-70
2023/09/30 00:39:30;;;;;;;4.37;2.63;;;17.50;99.90;;;;;;6131479;23;20517;-71
2023/09/30 00:41:59;;;;;;;3.50;3.20;;;17.50;99.90;;;;;;6098944;23;20665;-70
2023/09/30 00:44:27;;;;;;;31.87;4.90;;;17.30;99.90;;;;;;6124676;23;20521;-69
2023/09/30 00:46:56;;;;;;;5.90;4.07;;;17.20;99.90;;;;;;6132380;23;20549;-71
2023/09/30 00:49:24;;;;;;;10.80;3.80;;;17.10;99.90;;;;;;6133487;23;20653;-71
2023/09/30 00:51:52;;;;;;;16.80;4.40;;;17.00;99.90;;;;;;6106389;23;20463;-71
2023/09/30 00:54:22;;;;;;;7.90;3.40;;;17.00;99.90;;;;;;6115773;23;20453;-71
2023/09/30 00:56:51;;;;;;;4.70;2.40;;;17.10;99.90;;;;;;6091492;23;20526;-68
2023/09/30 00:59:21;;;;;;;11.80;3.80;;;17.20;99.90;;;;;;6129064;23;20542;-70
2023/09/30 01:01:48;;;;;;;5.20;3.20;;;17.30;99.90;;;;;;6131842;23;20480;-66
2023/09/30 01:04:17;;;;;;;6.53;3.00;;;17.30;99.90;;;;;;6129098;23;21124;-65
2023/09/30 01:06:45;;;;;;;7.70;3.43;;;17.20;99.90;;;;;;6089752;23;20470;-66
2023/09/30 01:09:12;;;;;;;8.30;3.17;;;17.10;99.90;;;;;;6122029;23;20446;-66
2023/09/30 01:11:41;;;;;;;6.73;3.70;;;17.00;99.90;;;;;;6128348;23;20947;-66
2023/09/30 01:14:28;;;;;;;13.00;4.67;;;16.90;99.90;;;;;;6133792;23;20927;-65
2023/09/30 01:16:56;;;;;;;12.83;3.80;;;17.00;99.90;;;;;;6131394;23;21250;-65
2023/09/30 01:19:24;;;;;;;12.23;3.20;;;17.00;99.90;;;;;;6133654;23;20692;-66
2023/09/30 01:21:54;;;;;;;6.97;2.97;;;17.00;99.90;;;;;;6134529;23;20444;-66
2023/09/30 01:24:21;;;;;;;9.20;4.40;;;17.10;99.90;;;;;;6133149;23;20442;-66
2023/09/30 01:26:49;;;;;;;15.40;4.23;;;17.10;99.90;;;;;;6131066;23;20860;-69
2023/09/30 01:29:17;;;;;;;5.50;3.03;;;17.20;99.90;;;;;;6130420;23;20442;-71
2023/09/30 01:31:47;;;;;;;8.10;3.57;;;17.30;99.90;;;;;;6133972;23;20454;-70
2023/09/30 01:34:16;;;;;;;5.40;2.80;;;17.30;99.90;;;;;;6132183;23;20453;-70
2023/09/30 01:36:43;;;;;;;7.27;3.57;;;17.30;99.90;;;;;;6133372;23;20777;-66
2023/09/30 01:39:11;;;;;;;5.90;3.97;;;17.30;99.90;;;;;;6134221;23;21045;-66
2023/09/30 01:41:38;;;;;;;7.50;4.07;;;17.30;99.90;;;;;;6091559;23;21044;-66
2023/09/30 01:44:06;;;;;;;12.53;4.27;;;17.30;99.90;;;;;;6132221;23;20449;-66
2023/09/30 01:46:34;;;;;;;37.40;5.97;;;17.30;99.90;;;;;;6131387;23;20434;-65
2023/09/30 01:49:01;;;;;;;6.40;3.63;;;17.40;99.90;;;;;;6133325;23;20512;-66
2023/09/30 01:51:29;;;;;;;6.67;3.83;;;17.40;99.90;;;;;;6130358;23;20498;-66
2023/09/30 01:53:56;;;;;;;17.60;4.27;;;17.30;99.90;;;;;;6108060;23;21199;-66
2023/09/30 01:56:25;;;;;;;10.77;4.33;;;17.20;99.90;;;;;;6116455;23;20941;-66
2023/09/30 01:58:52;;;;;;;6.97;4.50;;;17.10;99.90;;;;;;6130182;23;20545;-66
2023/09/30 02:01:20;;;;;;;13.60;4.40;;;17.10;99.90;;;;;;6123572;23;20450;-66
2023/09/30 02:03:47;;;;;;;8.93;3.50;;;17.00;99.90;;;;;;6107609;23;20875;-66
2023/09/30 02:06:15;;;;;;;6.37;3.07;;;17.00;99.90;;;;;;6114593;23;20975;-66
2023/09/30 02:08:44;;;;;;;5.50;4.30;;;17.00;99.90;;;;;;6132480;23;20443;-65
2023/09/30 02:11:13;;;;;;;12.17;4.40;;;16.90;99.90;;;;;;6131671;23;20449;-66
2023/09/30 02:13:42;;;;;;;11.37;3.80;;;;;;;;;;6132740;23;20959;-66
2023/09/30 02:16:13;;;;;;;10.63;4.60;;;16.80;99.90;;;;;;6126241;23;20842;-66
2023/09/30 02:18:41;;;;;;;28.33;4.30;;;16.70;99.90;;;;;;6134447;23;20453;-66
2023/09/30 02:21:08;;;;;;;34.10;4.90;;;16.50;99.90;;;;;;6133319;23;20914;-66
2023/09/30 02:23:36;;;;;;;11.30;4.30;;;16.50;99.90;;;;;;6132769;23;20770;-66
2023/09/30 02:26:03;;;;;;;7.63;3.80;;;16.40;99.90;;;;;;6133624;23;20442;-66
2023/09/30 02:28:32;;;;;;;7.40;4.30;;;16.40;99.90;;;;;;6131887;23;20450;-66
2023/09/30 02:31:00;;;;;;;18.13;3.90;;;16.40;99.90;;;;;;6133830;23;20775;-66
2023/09/30 02:33:27;;;;;;;10.50;3.93;;;;;;;;;;6080724;23;20978;-66
2023/09/30 02:35:54;;;;;;;14.63;4.07;;;16.50;99.90;;;;;;6132622;23;20446;-66
2023/09/30 02:38:22;;;;;;;6.80;3.83;;;16.40;99.90;;;;;;6134501;23;20517;-66
2023/09/30 02:40:51;;;;;;;6.70;4.80;;;16.40;99.90;;;;;;6136018;23;20482;-67
2023/09/30 02:43:18;;;;;;;13.17;4.90;;;16.30;99.90;;;;;;6137107;23;20462;-66
2023/09/30 02:45:45;;;;;;;5.23;3.90;;;16.40;99.90;;;;;;6137344;23;20446;-66
2023/09/30 02:48:13;;;;;;;5.60;3.07;;;16.30;99.90;;;;;;6137163;23;20442;-66
2023/09/30 02:50:44;;;;;;;5.60;3.47;;;16.30;99.90;;;;;;6136718;23;20453;-66
2023/09/30 02:53:12;;;;;;;11.53;4.23;;;16.20;99.90;;;;;;6135117;23;20445;-66
2023/09/30 02:55:39;;;;;;;12.63;4.20;;;16.30;99.90;;;;;;6138359;23;20446;-65
2023/09/30 02:58:06;;;;;;;9.30;4.70;;;16.30;99.90;;;;;;6137026;23;20533;-66
2023/09/30 03:00:33;;;;;;;6.00;3.40;;;16.20;99.90;;;;;;6137083;23;20453;-66
2023/09/30 03:03:02;;;;;;;27.13;4.87;;;16.20;99.90;;;;;;6136960;23;20450;-66
2023/09/30 03:05:33;;;;;;;5.80;3.50;;;16.20;99.90;;;;;;6120599;23;20454;-65
2023/09/30 03:08:00;;;;;;;5.90;3.70;;;16.20;99.90;;;;;;6113289;23;20841;-66
2023/09/30 03:10:27;;;;;;;11.93;4.23;;;16.20;99.90;;;;;;6137405;23;20453;-66
2023/09/30 03:12:54;;;;;;;8.83;3.30;;;16.20;99.90;;;;;;6134676;23;20448;-66
2023/09/30 03:15:21;;;;;;;7.30;3.50;;;16.20;99.90;;;;;;6136482;23;20735;-66
2023/09/30 03:17:49;;;;;;;7.40;3.87;;;16.10;99.90;;;;;;6096298;23;20442;-66
2023/09/30 03:20:19;;;;;;;8.53;4.27;;;16.10;99.90;;;;;;6133768;23;20468;-65
2023/09/30 03:22:47;;;;;;;48.70;8.00;;;16.10;99.90;;;;;;6139341;23;20998;-65
2023/09/30 03:25:17;;;;;;;4.40;3.63;;;16.00;99.90;;;;;;6137019;23;20450;-66
2023/09/30 03:27:44;;;;;;;8.80;3.40;;;15.60;99.90;;;;;;6137375;23;20603;-65
2023/09/30 03:30:12;;;;;;;9.73;3.30;;;15.60;99.90;;;;;;6137028;23;20450;-66
2023/09/30 03:32:39;;;;;;;7.20;3.97;;;15.60;99.90;;;;;;6139817;23;20795;-65
2023/09/30 03:35:07;;;;;;;3.83;3.00;;;15.50;99.90;;;;;;6134510;23;20438;-65
2023/09/30 03:38:32;;;;;;;13.50;3.80;;;15.50;99.90;;;;;;6132909;23;21018;-65
2023/09/30 03:41:01;;;;;;;11.83;3.40;;;15.50;99.90;;;;;;6121727;23;20555;-65
2023/09/30 03:43:28;;;;;;;22.97;4.13;;;;;;;;;;6139150;23;20911;-65
2023/09/30 03:45:57;;;;;;;11.20;4.23;;;15.40;99.90;;;;;;6139988;23;20438;-66
2023/09/30 03:48:23;;;;;;;6.80;4.40;;;15.40;99.90;;;;;;6138236;23;20434;-65
2023/09/30 03:50:52;;;;;;;5.37;3.90;;;15.40;99.90;;;;;;6138097;23;20437;-65
2023/09/30 03:53:19;;;;;;;5.10;3.73;;;15.40;99.90;;;;;;6138949;23;20442;-65
2023/09/30 03:55:46;;;;;;;4.60;3.10;;;15.40;99.90;;;;;;6133484;23;20550;-66
2023/09/30 03:58:15;;;;;;;16.73;4.77;;;15.40;99.90;;;;;;6133705;23;21214;-65
2023/09/30 04:00:42;;;;;;;8.50;4.60;;;15.40;99.90;;;;;;6132063;23;20552;-65
2023/09/30 04:03:08;;;;;;;7.10;3.70;;;15.30;99.90;;;;;;6115072;23;20451;-66
2023/09/30 04:05:36;;;;;;;13.10;3.90;;;15.10;99.70;;;;;;6119710;23;20854;-65
2023/09/30 04:08:04;;;;;;;5.33;3.40;;;15.00;99.70;;;;;;6120421;23;20450;-65
2023/09/30 04:10:32;;;;;;;5.30;3.30;;;14.80;99.80;;;;;;6113358;23;20480;-65
2023/09/30 04:12:59;;;;;;;12.43;3.27;;;14.50;99.90;;;;;;6138359;23;20510;-65
2023/09/30 04:15:27;;;;;;;4.57;3.10;;;14.40;99.90;;;;;;6135629;23;20758;-65
2023/09/30 04:17:54;;;;;;;23.73;3.97;;;14.30;99.90;;;;;;6134447;23;20832;-65
2023/09/30 04:20:23;;;;;;;8.67;3.50;;;14.40;99.90;;;;;;6135805;23;21207;-65
2023/09/30 04:22:50;;;;;;;13.63;4.73;;;14.40;99.90;;;;;;6105332;23;20875;-66
2023/09/30 04:25:18;;;;;;;7.33;3.60;;;14.50;99.90;;;;;;6126999;23;20469;-65
2023/09/30 04:27:47;;;;;;;7.37;4.43;;;;;;;;;;6136891;23;20510;-69
2023/09/30 04:30:15;;;;;;;9.10;4.07;;;14.50;99.90;;;;;;6134583;23;20446;-70
2023/09/30 04:32:43;;;;;;;21.57;5.07;;;14.50;99.90;;;;;;6137525;23;20981;-68
2023/09/30 04:35:10;;;;;;;14.90;3.70;;;14.40;99.90;;;;;;6096523;23;20455;-69
2023/09/30 04:37:38;;;;;;;6.67;4.27;;;14.40;99.90;;;;;;6135491;23;20453;-69
2023/09/30 04:40:15;;;;;;;4.43;3.07;;;14.30;99.90;;;;;;6131154;23;20950;-69
2023/09/30 04:42:42;;;;;;;7.10;4.63;;;14.20;99.90;;;;;;6121213;23;20445;-70
2023/09/30 04:45:10;;;;;;;5.77;3.83;;;14.10;99.90;;;;;;6135802;23;20450;-70
2023/09/30 04:47:37;;;;;;;15.87;4.87;;;14.00;99.90;;;;;;6134939;23;20489;-69
2023/09/30 04:50:07;;;;;;;6.07;4.70;;;13.80;99.90;;;;;;6073001;23;20440;-70
2023/09/30 04:52:34;;;;;;;41.60;5.57;;;13.80;99.90;;;;;;6124029;23;20634;-69
2023/09/30 04:55:03;;;;;;;6.10;3.73;;;13.80;99.90;;;;;;6137470;23;20957;-69
2023/09/30 04:57:30;;;;;;;5.30;3.37;;;13.80;99.90;;;;;;6133735;23;20446;-70
2023/09/30 04:59:57;;;;;;;4.73;3.80;;;13.80;99.90;;;;;;6134741;23;20438;-68
2023/09/30 05:02:24;;;;;;;17.50;4.33;;;13.80;99.90;;;;;;6138604;23;20446;-69
2023/09/30 05:04:52;;;;;;;6.10;3.70;;;13.80;99.90;;;;;;6133619;23;20554;-69
2023/09/30 05:07:21;;;;;;;6.60;4.30;;;13.90;99.90;;;;;;6116466;23;20446;-70
2023/09/30 05:09:49;;;;;;;6.23;4.07;;;14.00;99.90;;;;;;6115558;23;20446;-70
2023/09/30 05:12:16;;;;;;;13.03;5.50;;;14.00;99.90;;;;;;6133183;23;20456;-69
2023/09/30 05:14:43;;;;;;;9.13;3.10;;;14.10;99.90;;;;;;6137155;23;20530;-69
2023/09/30 05:17:10;;;;;;;6.17;4.20;;;14.10;99.90;;;;;;6098067;23;20455;-69
2023/09/30 05:19:37;;;;;;;9.93;4.10;;;14.10;99.90;;;;;;6133511;23;20452;-69
2023/09/30 05:22:05;;;;;;;12.20;4.67;;;14.10;99.90;;;;;;6136069;23;20777;-70
2023/09/30 05:24:34;;;;;;;8.13;4.40;;;14.10;99.90;;;;;;6137017;23;20438;-69
2023/09/30 05:27:01;;;;;;;15.33;4.53;;;14.20;99.90;;;;;;6136813;23;20501;-70
2023/09/30 05:29:28;;;;;;;12.80;5.90;;;14.20;99.90;;;;;;6136072;23;20453;-69
2023/09/30 05:31:56;;;;;;;6.50;4.03;;;14.30;99.90;;;;;;6099947;23;21126;-70
2023/09/30 05:34:22;;;;;;;15.13;4.87;;;14.20;99.90;;;;;;6103310;23;20547;-70
2023/09/30 05:36:51;;;;;;;14.67;4.67;;;14.30;99.90;;;;;;6103866;23;20453;-66
2023/09/30 05:39:19;;;;;;;10.37;4.83;;;14.30;99.90;;;;;;6136015;23;20453;-66
2023/09/30 05:41:48;;;;;;;6.37;3.77;;;14.30;99.90;;;;;;6136456;23;20562;-66
2023/09/30 05:44:15;;;;;;;6.60;4.20;;;14.40;99.90;;;;;;6137128;23;20442;-66
2023/09/30 05:46:42;;;;;;;6.70;3.80;;;14.40;99.90;;;;;;6134356;23;20457;-66
2023/09/30 05:49:13;;;;;;;6.03;3.43;;;14.50;99.90;;;;;;6132497;23;20927;-66
2023/09/30 05:51:40;;;;;;;6.10;3.93;;;14.50;99.90;;;;;;6137716;23;20450;-66
2023/09/30 05:54:09;;;;;;;24.87;5.43;;;;;;;;;;6130721;23;20951;-66
2023/09/30 05:56:36;;;;;;;4.67;3.27;;;14.50;99.90;;;;;;6093919;23;21068;-66
2023/09/30 05:59:06;;;;;;;11.43;3.63;;;14.50;99.90;;;;;;6130638;23;20446;-66
2023/09/30 06:01:33;;;;;;;14.60;4.40;;;14.50;99.90;;;;;;6135398;23;20453;-66
2023/09/30 06:04:00;;;;;;;11.70;3.80;;;14.50;99.90;;;;;;6134097;23;20450;-66
2023/09/30 06:06:28;;;;;;;4.70;3.27;;;14.50;99.90;;;;;;6097216;23;20447;-66
2023/09/30 06:08:55;;;;;;;8.60;3.60;;;14.50;99.90;;;;;;6129576;23;20522;-66
2023/09/30 06:11:24;;;;;;;4.67;3.50;;;14.50;99.90;;;;;;6127542;23;20776;-66
2023/09/30 06:13:52;;;;;;;6.07;3.37;;;14.50;99.90;;;;;;6137913;23;20442;-66
2023/09/30 06:16:21;;;;;;;8.80;3.90;;;14.60;99.90;;;;;;6135966;23;20518;-66
2023/09/30 06:18:48;;;;;;;3.93;3.20;;;14.60;99.90;;;;;;6131761;23;20501;-65
2023/09/30 06:21:17;;;;;;;3.43;3.13;;;14.60;99.90;;;;;;6138774;23;20446;-66
2023/09/30 06:23:44;;;;;;;4.53;3.20;;;14.60;99.90;;;;;;6134453;23;20454;-66
2023/09/30 06:26:11;;;;;;;3.10;2.20;;;14.60;99.90;;;;;;6132975;23;20453;-67
2023/09/30 06:28:40;;;;;;;21.73;4.43;;;14.70;99.90;;;;;;6135315;23;20446;-66
2023/09/30 06:31:08;;;;;;;3.50;2.87;;;14.70;99.90;;;;;;6137268;23;20501;-66
2023/09/30 06:33:38;;;;;;;7.70;3.60;;;14.70;99.90;;;;;;6114155;23;20482;-66
2023/09/30 06:36:09;;;;;;;4.73;3.50;;;14.80;99.90;;;;;;6076241;23;20447;-65
2023/09/30 06:38:36;;;;;;;11.87;3.73;;;14.80;99.90;;;;;;6119316;23;20450;-66
2023/09/30 06:41:03;;;;;;;4.40;3.40;;;14.80;99.90;;;;;;6132938;23;20447;-66
2023/09/30 06:43:30;;;;;;;3.37;2.60;;;14.90;99.90;;;;;;6135349;23;20445;-66
2023/09/30 06:45:57;;;;;;;7.63;3.80;;;14.90;99.90;;;;;;6134442;23;20509;-66
2023/09/30 06:48:24;;;;;;;7.13;3.53;;;14.90;99.90;;;;;;6131698;23;20442;-71
2023/09/30 06:50:52;;;;;;;4.50;3.50;;;15.00;99.90;;;;;;6133857;23;20867;-70
2023/09/30 06:53:21;;;;;;;3.43;2.40;;;15.00;99.90;;;;;;6136015;23;20447;-69
2023/09/30 06:55:48;;;;;;;3.10;2.40;;;15.10;99.90;;;;;;6140047;23;20537;-70
2023/09/30 06:58:20;;;;;;;7.70;3.60;;;15.20;99.90;;;;;;6131095;23;20453;-69
2023/09/30 07:00:48;;;;;;;3.67;2.57;;;15.30;99.90;;;;;;6140228;23;20716;-69
2023/09/30 07:03:15;;;;;;;20.53;4.50;;;15.30;99.90;;;;;;6135785;23;20452;-69
2023/09/30 07:05:42;;;;;;;4.20;3.00;;;15.40;99.90;;;;;;6138862;23;20870;-70
2023/09/30 07:08:10;;;;;;;6.80;2.70;;;15.50;99.90;;;;;;6122317;23;20438;-70
2023/09/30 07:10:37;;;;;;;9.30;3.00;;;15.60;99.90;;;;;;6115069;23;20446;-70
2023/09/30 07:13:06;;;;;;;29.63;4.30;;;15.90;99.90;;;;;;6139862;23;20542;-69
2023/09/30 07:15:33;;;;;;;3.53;2.20;;;16.00;99.90;;;;;;6098946;23;20442;-69
2023/09/30 07:18:00;;;;;;;8.20;3.80;;;16.40;99.90;;;;;;6113193;23;20445;-70
2023/09/30 07:20:27;;;;;;;8.23;3.90;;;16.70;99.90;;;;;;6140284;23;20449;-69
2023/09/30 07:22:54;;;;;;;4.77;3.17;;;17.00;99.90;;;;;;6136595;23;21135;-69
2023/09/30 07:25:23;;;;;;;6.27;3.83;;;17.20;99.90;;;;;;6141166;23;20450;-69
2023/09/30 07:27:50;;;;;;;5.80;3.57;;;17.40;99.90;;;;;;6095868;23;20443;-69
2023/09/30 07:30:17;;;;;;;4.43;2.93;;;17.40;99.90;;;;;;6141179;23;20658;-70
2023/09/30 07:32:44;;;;;;;14.57;3.60;;;17.50;99.90;;;;;;6139407;23;20442;-70
2023/09/30 07:35:12;;;;;;;4.47;2.87;;;;;;;;;;6140051;23;20470;-69
2023/09/30 07:37:38;;;;;;;36.80;5.87;;;17.30;99.90;;;;;;6115219;23;20836;-69
2023/09/30 07:40:07;;;;;;;5.40;3.47;;;17.30;99.90;;;;;;6102455;23;20528;-70
2023/09/30 07:42:35;;;;;;;4.63;3.23;;;17.30;99.90;;;;;;6137926;23;20793;-70
2023/09/30 07:45:03;;;;;;;10.70;3.13;;;17.30;99.90;;;;;;6138345;23;20442;-69
2023/09/30 07:47:33;;;;;;;3.90;2.43;;;;;;;;;;6137485;23;21001;-69
2023/09/30 07:50:00;;;;;;;3.73;3.27;;;17.40;99.90;;;;;;6138822;23;20525;-70
2023/09/30 07:52:27;;;;;;;3.90;2.70;;;17.40;99.90;;;;;;6138195;23;20783;-70
2023/09/30 07:54:54;;;;;;;5.47;3.17;;;17.30;99.90;;;;;;6135464;23;20481;-69
2023/09/30 07:57:21;;;;;;;3.10;2.43;;;17.20;99.90;;;;;;6138855;23;21061;-70
2023/09/30 07:59:49;;;;;;;3.83;2.47;;;17.20;99.90;;;;;;6135094;23;20505;-70
2023/09/30 08:02:17;;;;;;;6.47;3.43;;;17.20;99.90;;;;;;6109706;23;20443;-70
2023/09/30 08:04:44;;;;;;;12.30;3.07;;;17.00;99.90;;;;;;6128386;23;20457;-70
2023/09/30 08:07:11;;;;;;;11.57;3.33;;;16.90;99.90;;;;;;6138718;23;20521;-70
2023/09/30 08:09:38;;;;;;;5.30;3.20;;;16.80;99.90;;;;;;6138880;23;20438;-69
2023/09/30 08:12:06;;;;;;;14.83;4.00;;;16.80;99.90;;;;;;6137678;23;20446;-71
2023/09/30 08:14:33;;;;;;;4.50;2.97;;;16.80;99.90;;;;;;6096986;23;20431;-69
2023/09/30 08:17:02;;;;;;;3.53;2.63;;;16.70;99.90;;;;;;6137198;23;20464;-67
2023/09/30 08:19:29;;;;;;;12.13;3.90;;;16.60;99.90;;;;;;6140008;23;21084;-66
2023/09/30 08:21:56;;;;;;;4.50;3.13;;;16.60;99.90;;;;;;6138261;23;20449;-66
2023/09/30 08:24:23;;;;;;;5.57;4.03;;;16.80;99.90;;;;;;6090382;23;20447;-66
2023/09/30 08:26:51;;;;;;;5.50;3.83;;;17.00;99.90;;;;;;6097927;23;20454;-70
2023/09/30 08:29:18;;;;;;;7.60;4.13;;;17.20;99.90;;;;;;6130635;23;20457;-71
2023/09/30 08:31:45;;;;;;;8.00;4.27;;;17.30;99.90;;;;;;6138368;23;20907;-69
2023/09/30 08:34:14;;;;;;;8.93;4.17;;;17.50;99.90;;;;;;6134406;23;21026;-69
2023/09/30 08:36:42;;;;;;;5.50;3.80;;;17.60;99.90;;;;;;6139472;23;21056;-70
2023/09/30 08:39:10;;;;;;;6.33;4.77;;;17.70;99.90;;;;;;6134522;23;20453;-69
2023/09/30 08:41:37;;;;;;;12.70;4.20;;;17.90;99.90;;;;;;6137701;23;20450;-70
2023/09/30 08:44:05;;;;;;;17.77;4.73;;;18.00;99.90;;;;;;6135081;23;20443;-71
2023/09/30 08:46:33;;;;;;;17.23;5.33;;;18.10;99.90;;;;;;6107417;23;21314;-70
2023/09/30 08:49:03;;;;;;;8.20;5.47;;;18.20;99.90;;;;;;6126284;23;20449;-71
2023/09/30 08:51:32;;;;;;;6.67;4.50;;;18.30;99.90;;;;;;6136549;23;20451;-70
2023/09/30 08:54:00;;;;;;;7.03;3.90;;;18.50;99.90;;;;;;6137061;23;20724;-71
2023/09/30 08:56:29;;;;;;;17.77;5.43;;;18.70;99.90;;;;;;6104816;23;20955;-70
2023/09/30 08:58:58;;;;;;;8.00;5.63;;;18.80;99.90;;;;;;6127988;23;20438;-68
2023/09/30 09:01:26;;;;;;;20.20;5.43;;;19.10;99.90;;;;;;6136408;23;20438;-70
2023/09/30 09:03:53;;;;;;;12.57;5.27;;;19.30;99.90;;;;;;6138248;23;20446;-69
2023/09/30 09:06:21;;;;;;;6.93;4.53;;;19.50;99.90;;;;;;6096913;23;20493;-71
2023/09/30 09:08:49;;;;;;;6.83;4.80;;;19.70;99.90;;;;;;6136713;23;20452;-69
2023/09/30 09:11:17;;;;;;;10.30;5.10;;;20.10;99.90;;;;;;6135465;23;21031;-71
2023/09/30 09:13:49;;;;;;;17.20;4.50;;;20.30;99.90;;;;;;6104867;23;20443;-71
2023/09/30 09:16:17;;;;;;;9.30;4.33;;;20.50;99.90;;;;;;6128478;23;21001;-69
2023/09/30 09:18:44;;;;;;;16.43;5.53;;;20.70;99.90;;;;;;6114347;23;20453;-71
2023/09/30 09:21:12;;;;;;;15.10;4.80;;;20.80;99.90;;;;;;6098665;23;20450;-70
2023/09/30 09:23:43;;;;;;;9.73;4.63;;;21.00;99.90;;;;;;6130924;23;20763;-70
2023/09/30 09:26:12;;;;;;;9.07;4.23;;;21.20;99.90;;;;;;6129062;23;20453;-69
2023/09/30 09:28:39;;;;;;;18.17;5.30;;;21.40;99.70;;;;;;6138215;23;20590;-70
2023/09/30 09:31:26;;;;;;;7.70;5.00;;;21.70;99.90;;;;;;6132858;23;20449;-70
2023/09/30 09:33:54;;;;;;;8.87;5.70;;;;;;;;;;6111535;23;20484;-70
2023/09/30 09:36:21;;;;;;;8.97;5.03;;;22.20;99.40;;;;;;6114676;23;20493;-69
2023/09/30 09:38:50;;;;;;;8.90;5.20;;;22.30;99.20;;;;;;6131744;23;20442;-70
2023/09/30 09:41:18;;;;;;;33.57;7.37;;;22.50;99.00;;;;;;6130900;23;20470;-70
2023/09/30 09:43:45;;;;;;;7.80;5.30;;;22.70;98.50;;;;;;6136990;23;20438;-66
2023/09/30 09:46:13;;;;;;;14.23;4.50;;;22.80;98.60;;;;;;6124953;23;20446;-66
2023/09/30 09:48:40;;;;;;;12.53;4.60;;;;;;;;;;6106603;23;20444;-66
2023/09/30 09:51:09;;;;;;;6.83;3.77;;;23.00;98.20;;;;;;6125629;23;20442;-66
2023/09/30 09:53:38;;;;;;;8.87;3.73;;;23.10;98.20;;;;;;6131131;23;20442;-66
2023/09/30 09:56:05;;;;;;;12.13;3.67;;;23.20;98.00;;;;;;6136039;23;20496;-66
2023/09/30 09:58:36;;;;;;;6.13;3.90;;;23.30;97.80;;;;;;6133642;23;20450;-66
2023/09/30 10:01:05;;;;;;;5.27;4.03;;;23.50;97.90;;;;;;6134144;23;20446;-66
2023/09/30 10:03:32;;;;;;;15.40;4.30;;;23.30;96.70;;;;;;6113872;23;20610;-66
2023/09/30 10:06:00;;;;;;;7.10;3.57;;;23.00;95.90;;;;;;6108396;23;20438;-66
2023/09/30 10:08:33;;;;;;;5.13;2.90;;;22.80;95.90;;;;;;6137255;23;21088;-66
2023/09/30 10:11:01;;;;;;;8.90;3.27;;;22.80;97.00;;;;;;6111514;23;20450;-66
2023/09/30 10:13:55;;;;;;;12.17;3.30;;;23.20;96.90;;;;;;6136852;23;20446;-67
2023/09/30 10:16:49;;;;;;;28.87;4.10;;;23.20;97.00;;;;;;6091441;23;20439;-65
2023/09/30 10:19:18;;;;;;;5.60;4.07;;;23.00;95.40;;;;;;6123904;23;20434;-66
2023/09/30 10:22:22;;;;;;;7.77;3.13;;;23.10;95.90;;;;;;6075987;23;20443;-66
2023/09/30 10:24:50;;;;;;;7.20;2.87;;;23.00;93.90;;;;;;6120675;23;20861;-67
2023/09/30 10:27:34;;;;;;;4.23;2.90;;;22.90;94.40;;;;;;6136219;23;20611;-66
2023/09/30 10:30:13;;;;;;;11.77;3.43;;;22.60;94.10;;;;;;6137931;23;20512;-66
2023/09/30 10:33:11;;;;;;;5.20;2.60;;;22.30;94.10;;;;;;6096377;23;20785;-66
2023/09/30 10:35:49;;;;;;;6.70;3.23;;;22.30;94.20;;;;;;6135970;23;20439;-65
2023/09/30 10:38:38;;;;;;;5.13;2.90;;;22.10;93.80;;;;;;6097850;23;20509;-65
2023/09/30 10:41:05;;;;;;;2.40;2.17;;;22.10;94.10;;;;;;6135436;23;20442;-66
2023/09/30 10:43:33;;;;;;;20.10;3.37;;;22.20;94.50;;;;;;6133867;23;20442;-66
2023/09/30 10:46:01;;;;;;;9.73;3.33;;;22.10;93.60;;;;;;6136180;23;20453;-66
2023/09/30 10:48:38;;;;;;;7.90;3.33;;;22.30;93.30;;;;;;6135381;23;20432;-66
2023/09/30 10:51:14;;;;;;;4.67;3.03;;;22.70;94.90;;;;;;6134962;23;20457;-66
2023/09/30 10:53:51;;;;;;;6.70;3.03;;;23.10;94.40;;;;;;6133509;23;20991;-66
2023/09/30 10:56:18;;;;;;;8.40;3.33;;;23.20;93.00;;;;;;6135511;23;20458;-66
2023/09/30 10:58:46;;;;;;;6.40;3.03;;;23.10;92.00;;;;;;6137562;23;20943;-65
2023/09/30 11:01:15;;;;;;;8.50;2.73;;;23.20;93.50;;;;;;6134921;23;20473;-66
2023/09/30 11:03:42;;;;;;;6.73;3.67;;;23.40;91.30;;;;;;6132261;23;21253;-65
2023/09/30 11:06:13;;;;;;;20.03;4.53;;;23.40;91.10;;;;;;6137521;23;20417;-66
2023/09/30 11:08:50;;;;;;;9.33;4.17;;;23.50;91.90;;;;;;6132789;23;20975;-65
2023/09/30 11:11:17;;;;;;;10.83;3.70;;;23.80;92.70;;;;;;6135331;23;20518;-66
2023/09/30 11:13:44;;;;;;;5.07;3.17;;;23.70;90.30;;;;;;6119198;23;20983;-65
2023/09/30 11:16:11;;;;;;;13.77;3.87;;;23.40;89.20;;;;;;6112171;23;20417;-65
2023/09/30 11:18:39;;;;;;;6.03;3.10;;;23.40;90.80;;;;;;6133644;23;20428;-66
2023/09/30 11:21:08;;;;;;;6.70;3.07;;;23.60;91.70;;;;;;6116787;23;20465;-65
2023/09/30 11:23:35;;;;;;;9.53;3.80;;;23.90;91.40;;;;;;6095702;23;20450;-66
2023/09/30 11:26:02;;;;;;;18.93;4.20;;;24.10;92.70;;;;;;6104918;23;20438;-71
2023/09/30 11:28:39;;;;;;;7.93;3.60;;;24.40;92.50;;;;;;6096488;23;20428;-70
2023/09/30 11:31:10;;;;;;;4.30;3.03;;;24.70;92.00;;;;;;6123643;23;20423;-69
2023/09/30 11:33:51;;;;;;;27.77;4.43;;;25.10;91.30;;;;;;6091384;23;21253;-70
2023/09/30 11:36:19;;;;;;;13.10;3.90;;;25.30;92.00;;;;;;6100411;23;20939;-70
2023/09/30 11:38:47;;;;;;;11.20;3.17;;;25.40;91.70;;;;;;6122262;23;20448;-71
2023/09/30 11:41:14;;;;;;;7.43;3.30;;;25.50;91.30;;;;;;6129915;23;20456;-71
2023/09/30 11:43:58;;;;;;;12.47;4.20;;;25.50;91.10;;;;;;6109669;23;20820;-70
2023/09/30 11:46:27;;;;;;;9.03;2.93;;;25.50;91.00;;;;;;6118616;23;20881;-70
2023/09/30 11:49:01;;;;;;;6.90;3.20;;;25.70;90.20;;;;;;6132983;23;20446;-70
2023/09/30 11:51:28;;;;;;;10.20;4.00;;;25.70;90.30;;;;;;6133597;23;20420;-71
2023/09/30 11:53:56;;;;;;;5.07;3.03;;;25.90;90.40;;;;;;6129599;23;20785;-71
2023/09/30 11:56:29;;;;;;;4.00;2.53;;;26.00;90.10;;;;;;6132023;23;20721;-69
2023/09/30 11:58:56;;;;;;;7.20;2.80;;;;;;;;;;6128345;23;21080;-71
2023/09/30 12:01:25;;;;;;;4.73;2.90;;;25.90;89.50;;;;;;6127985;23;20458;-70
2023/09/30 12:03:53;;;;;;;14.17;2.73;;;25.90;87.50;;;;;;6134387;23;20424;-70
2023/09/30 12:06:21;;;;;;;14.43;3.97;;;25.70;85.60;;;;;;6133878;23;20478;-72
2023/09/30 12:08:47;;;;;;;5.97;3.33;;;25.50;87.60;;;;;;6134492;23;20443;-72
2023/09/30 12:11:15;;;;;;;10.47;4.33;;;25.50;88.30;;;;;;6090692;23;20974;-72
2023/09/30 12:13:44;;;;;;;3.80;2.40;;;25.40;89.80;;;;;;6134362;23;20450;-72
2023/09/30 12:16:11;;;;;;;9.83;3.50;;;25.30;89.30;;;;;;6127242;23;20449;-72
2023/09/30 12:18:38;;;;;;;6.70;3.33;;;25.30;88.00;;;;;;6133484;23;20449;-69
2023/09/30 12:21:06;;;;;;;26.97;5.50;;;24.90;86.80;;;;;;6130746;23;20897;-72
2023/09/30 12:23:35;;;;;;;6.47;3.23;;;24.90;87.20;;;;;;6129469;23;20435;-69
2023/09/30 12:26:04;;;;;;;5.87;4.10;;;24.70;87.30;;;;;;6133828;23;20425;-72
2023/09/30 12:28:32;;;;;;;10.70;3.83;;;;;;;;;;6079524;23;20555;-70
2023/09/30 12:31:01;;;;;;;8.30;4.33;;;24.70;89.50;;;;;;6133749;23;20420;-71
2023/09/30 12:33:28;;;;;;;41.30;5.30;;;;;;;;;;6136116;23;21029;-71
2023/09/30 12:35:55;;;;;;;7.80;2.90;;;24.70;87.80;;;;;;6133178;23;20442;-71
2023/09/30 12:38:22;;;;;;;20.50;4.33;;;24.60;87.70;;;;;;6133816;23;20424;-69
2023/09/30 12:40:50;;;;;;;19.10;3.97;;;24.70;89.10;;;;;;6134179;23;20424;-69
2023/09/30 12:43:17;;;;;;;8.70;4.17;;;24.70;89.30;;;;;;6135556;23;20685;-70
2023/09/30 12:45:43;;;;;;;6.77;3.90;;;24.90;88.10;;;;;;6131639;23;20433;-70
2023/09/30 12:48:10;;;;;;;15.73;3.63;;;25.00;89.20;;;;;;6101988;23;20960;-71
2023/09/30 12:50:37;;;;;;;17.17;4.73;;;25.10;87.10;;;;;;6093218;23;20418;-71
2023/09/30 12:53:04;;;;;;;7.97;4.40;;;25.20;86.60;;;;;;6095585;23;20445;-68
2023/09/30 12:55:31;;;;;;;18.87;3.77;;;25.30;86.60;;;;;;6126543;23;20830;-70